Time;durP1;ratioP1;P1;durP2;ratioP2;P2;SDS_P1;SDS_P2;PMS_P1;PMS_P2;Temp;Humidity;BMP_temperature;BMP_pressure;BME280_temperature;BME280_humidity;BME280_pressure;Samples;Min_cycle;Max_cycle;Signal;HPM_P1;HPM_P2
2023/11/19 00:01:19;;;;;;;;;;;6.60;91.50;;;;;;5029534;28;19983;-60
2023/11/19 00:03:52;;;;;;;;;;;6.60;91.50;;;;;;5028169;28;20033;-61
2023/11/19 00:06:26;;;;;;;;;;;6.70;91.40;;;;;;5029593;28;20369;-60
2023/11/19 00:09:03;;;;;;;;;;;6.60;91.50;;;;;;5020495;28;19929;-61
2023/11/19 00:11:36;;;;;;;;;;;6.60;91.50;;;;;;5028892;28;19935;-61
2023/11/19 00:14:02;;;;;;;;;;;6.60;91.60;;;;;;5025882;28;19968;-62
2023/11/19 00:16:36;;;;;;;;;;;6.60;91.60;;;;;;5028133;28;20483;-61
2023/11/19 00:19:09;;;;;;;;;;;6.50;91.70;;;;;;5022359;28;19929;-60
2023/11/19 00:21:42;;;;;;;;;;;6.50;92.00;;;;;;5027988;28;20462;-62
2023/11/19 00:24:17;;;;;;;;;;;6.60;92.00;;;;;;5029723;28;19929;-62
2023/11/19 00:26:51;;;;;;;;;;;6.60;91.90;;;;;;5028498;28;20473;-61
2023/11/19 00:29:24;;;;;;;;;;;6.70;91.80;;;;;;5029811;28;20374;-61
2023/11/19 00:31:58;;;;;;;;;;;6.60;91.70;;;;;;5026204;28;19925;-62
2023/11/19 00:34:31;;;;;;;;;;;6.70;91.70;;;;;;5012569;28;20372;-61
2023/11/19 00:37:04;;;;;;;;;;;6.70;91.70;;;;;;5029593;28;20003;-60
2023/11/19 00:39:38;;;;;;;;;;;6.70;91.70;;;;;;5027656;28;19929;-62
2023/11/19 00:42:11;;;;;;;;;;;6.70;91.80;;;;;;5027820;28;20016;-61
2023/11/19 00:44:44;;;;;;;;;;;6.70;91.70;;;;;;5014876;28;19948;-61
2023/11/19 00:47:17;;;;;;;;;;;6.70;91.80;;;;;;5028947;28;19925;-61
2023/11/19 00:49:51;;;;;;;;;;;6.70;91.70;;;;;;5018163;28;19941;-61
2023/11/19 00:52:24;;;;;;;;;;;6.70;91.70;;;;;;5022766;28;20020;-61
2023/11/19 00:54:59;;;;;;;;;;;6.70;91.80;;;;;;5025576;28;20011;-65
2023/11/19 00:57:27;;;;;;;;;;;6.70;91.70;;;;;;5017611;28;19929;-61
2023/11/19 01:00:00;;;;;;;;;;;6.70;91.70;;;;;;5008217;28;19933;-61
2023/11/19 01:02:34;;;;;;;;;;;6.70;91.70;;;;;;5005622;28;20387;-60
2023/11/19 01:05:09;;;;;;;;;;;6.70;91.80;;;;;;5021483;28;19939;-61
2023/11/19 01:07:43;;;;;;;;;;;6.70;91.80;;;;;;4999885;28;19930;-61
2023/11/19 01:10:18;;;;;;;;;;;6.70;91.80;;;;;;5009391;28;19930;-61
2023/11/19 01:12:52;;;;;;;;;;;6.80;91.70;;;;;;5006976;28;20032;-60
2023/11/19 01:15:26;;;;;;;;;;;6.80;91.70;;;;;;5007845;28;19937;-60
2023/11/19 01:18:00;;;;;;;;;;;6.80;91.70;;;;;;5009473;28;19960;-60
2023/11/19 01:20:34;;;;;;;;;;;6.80;91.70;;;;;;5018570;28;19940;-61
2023/11/19 01:23:08;;;;;;;;;;;6.90;91.70;;;;;;4994872;28;19963;-60
2023/11/19 01:25:42;;;;;;;;;;;6.80;91.70;;;;;;5029338;28;19931;-62
2023/11/19 01:28:16;;;;;;;;;;;6.80;91.70;;;;;;5028769;28;19933;-61
2023/11/19 01:30:51;;;;;;;;;;;6.80;91.80;;;;;;5009077;28;19925;-60
2023/11/19 01:33:18;;;;;;;;;;;6.80;91.80;;;;;;5027014;28;19929;-61
2023/11/19 01:35:51;;;;;;;;;;;6.80;91.80;;;;;;5019076;28;19933;-60
2023/11/19 01:38:24;;;;;;;;;;;6.90;91.70;;;;;;5014667;28;20303;-61
2023/11/19 01:40:58;;;;;;;;;;;6.90;91.60;;;;;;5031317;28;19929;-61
2023/11/19 01:43:31;;;;;;;;;;;6.90;91.80;;;;;;5039404;28;19944;-60
2023/11/19 01:46:05;;;;;;;;;;;6.90;91.80;;;;;;5032341;28;19983;-61
2023/11/19 01:48:40;;;;;;;;;;;6.90;91.70;;;;;;5030331;28;20000;-62
2023/11/19 01:51:16;;;;;;;;;;;6.90;91.70;;;;;;4988489;28;20308;-61
2023/11/19 01:53:49;;;;;;;;;;;6.90;91.70;;;;;;4989056;28;19926;-62
2023/11/19 01:56:27;;;;;;;;;;;6.90;91.80;;;;;;4995578;28;19954;-61
2023/11/19 01:59:01;;;;;;;;;;;6.90;91.70;;;;;;5034321;28;19929;-60
2023/11/19 02:01:39;;;;;;;;;;;6.90;91.80;;;;;;5029510;28;20016;-62
2023/11/19 02:04:12;;;;;;;;;;;6.90;91.70;;;;;;5007185;28;19975;-61
2023/11/19 02:06:46;;;;;;;;;;;6.90;91.70;;;;;;5023381;28;19971;-62
2023/11/19 02:09:19;;;;;;;;;;;6.90;91.70;;;;;;5031685;28;19933;-61
2023/11/19 02:11:53;;;;;;;;;;;7.00;91.80;;;;;;5030193;28;20478;-60
2023/11/19 02:14:28;;;;;;;;;;;7.00;91.70;;;;;;5031455;28;19971;-65
2023/11/19 02:17:02;;;;;;;;;;;6.90;91.70;;;;;;5017273;28;20029;-66
2023/11/19 02:19:35;;;;;;;;;;;6.90;91.80;;;;;;5004598;28;19964;-66
2023/11/19 02:22:11;;;;;;;;;;;7.00;91.90;;;;;;5013179;28;19988;-65
2023/11/19 02:24:44;;;;;;;;;;;7.00;91.80;;;;;;5034308;28;20283;-64
2023/11/19 02:27:28;;;;;;;;;;;7.00;91.80;;;;;;5023541;28;20383;-66
2023/11/19 02:30:08;;;;;;;;;;;7.00;91.80;;;;;;5031085;28;19933;-65
2023/11/19 02:32:41;;;;;;;;;;;7.00;91.80;;;;;;5030850;28;19995;-65
2023/11/19 02:35:15;;;;;;;;;;;7.00;91.70;;;;;;5025055;28;19980;-66
2023/11/19 02:37:48;;;;;;;;;;;7.00;91.90;;;;;;4999116;28;19931;-65
2023/11/19 02:40:22;;;;;;;;;;;7.00;91.90;;;;;;5029226;28;20051;-64
2023/11/19 02:42:56;;;;;;;;;;;7.00;91.90;;;;;;5021313;28;19926;-66
2023/11/19 02:45:31;;;;;;;;;;;7.00;91.90;;;;;;5012520;28;20395;-65
2023/11/19 02:48:07;;;;;;;;;;;7.00;91.80;;;;;;5005073;28;20022;-65
2023/11/19 02:50:41;;;;;;;;;;;7.10;92.00;;;;;;5030369;28;19940;-65
2023/11/19 02:53:14;;;;;;;;;;;7.10;92.00;;;;;;5030812;28;19929;-66
2023/11/19 02:55:50;;;;;;;;;;;7.10;92.00;;;;;;5018993;28;19961;-66
2023/11/19 02:58:28;;;;;;;;;;;7.10;92.00;;;;;;5024742;28;20307;-66
2023/11/19 03:01:12;;;;;;;;;;;7.20;92.00;;;;;;5008189;28;19930;-64
2023/11/19 03:03:49;;;;;;;;;;;7.20;92.00;;;;;;5014728;28;19925;-65
2023/11/19 03:06:22;;;;;;;;;;;7.30;92.20;;;;;;5010132;28;19929;-65
2023/11/19 03:08:56;;;;;;;;;;;7.30;92.20;;;;;;5024872;28;20062;-65
2023/11/19 03:11:29;;;;;;;;;;;7.40;92.20;;;;;;5022935;28;19932;-65
2023/11/19 03:14:02;;;;;;;;;;;7.40;92.20;;;;;;5011266;28;19925;-66
2023/11/19 03:16:37;;;;;;;;;;;7.40;92.20;;;;;;5025214;28;20372;-66
2023/11/19 03:19:11;;;;;;;;;;;7.40;92.30;;;;;;5029622;28;19944;-65
2023/11/19 03:21:48;;;;;;;;;;;7.60;92.50;;;;;;5029941;28;19944;-65
2023/11/19 03:24:21;;;;;;;;;;;7.60;92.80;;;;;;5007615;28;19964;-62
2023/11/19 03:26:54;;;;;;;;;;;7.60;92.70;;;;;;5028518;28;19984;-61
2023/11/19 03:29:28;;;;;;;;;;;7.60;92.50;;;;;;5029269;28;20376;-61
2023/11/19 03:32:03;;;;;;;;;;;7.60;92.60;;;;;;5009999;28;19929;-61
2023/11/19 03:34:37;;;;;;;;;;;7.70;92.80;;;;;;4992711;28;19929;-63
2023/11/19 03:37:11;;;;;;;;;;;7.70;92.90;;;;;;5012439;28;19933;-60
2023/11/19 03:39:44;;;;;;;;;;;7.70;92.80;;;;;;5014431;28;19973;-61
2023/11/19 03:42:17;;;;;;;;;;;7.70;93.00;;;;;;5029002;28;19929;-62
2023/11/19 03:44:50;;;;;;;;;;;7.70;93.10;;;;;;5021901;28;19925;-61
2023/11/19 03:47:24;;;;;;;;;;;7.70;93.00;;;;;;5023021;28;19932;-61
2023/11/19 03:49:58;;;;;;;;;;;7.80;93.10;;;;;;5027680;28;19990;-61
2023/11/19 03:52:31;;;;;;;;;;;7.80;93.40;;;;;;5004837;28;19929;-60
2023/11/19 03:54:58;;;;;;;;;;;7.90;93.60;;;;;;5027106;28;19933;-61
2023/11/19 03:57:31;;;;;;;;;;;8.00;93.70;;;;;;5015572;28;20451;-61
2023/11/19 04:00:09;;;;;;;;;;;7.90;93.50;;;;;;5024955;28;20027;-60
2023/11/19 04:02:47;;;;;;;;;;;7.90;93.60;;;;;;5028043;28;19936;-61
2023/11/19 04:05:21;;;;;;;;;;;8.00;93.70;;;;;;5030637;28;19925;-61
2023/11/19 04:07:54;;;;;;;;;;;8.10;93.90;;;;;;5030790;28;19929;-60
2023/11/19 04:10:27;;;;;;;;;;;8.10;93.90;;;;;;5028640;28;19926;-61
2023/11/19 04:13:01;;;;;;;;;;;8.20;94.00;;;;;;5030417;28;19932;-60
2023/11/19 04:15:34;;;;;;;;;;;8.20;94.00;;;;;;5033047;28;20011;-61
2023/11/19 04:18:09;;;;;;;;;;;8.20;94.00;;;;;;5030400;28;19936;-60
2023/11/19 04:20:42;;;;;;;;;;;8.20;94.10;;;;;;5012806;28;19929;-61
2023/11/19 04:23:15;;;;;;;;;;;8.30;94.10;;;;;;5000486;28;20008;-61
2023/11/19 04:25:48;;;;;;;;;;;8.40;94.20;;;;;;5028908;28;20438;-61
2023/11/19 04:28:21;;;;;;;;;;;8.40;94.20;;;;;;5022952;28;19932;-60
2023/11/19 04:30:54;;;;;;;;;;;8.30;94.20;;;;;;5019220;28;20306;-62
2023/11/19 04:33:28;;;;;;;;;;;8.40;94.30;;;;;;5030244;28;20372;-63
2023/11/19 04:36:04;;;;;;;;;;;8.40;94.30;;;;;;5027802;28;19983;-63
2023/11/19 04:38:38;;;;;;;;;;;8.40;94.30;;;;;;5029327;28;20287;-62
2023/11/19 04:41:11;;;;;;;;;;;8.40;94.30;;;;;;5027854;28;19929;-63
2023/11/19 04:43:44;;;;;;;;;;;8.50;94.40;;;;;;5027773;28;20351;-63
2023/11/19 04:46:17;;;;;;;;;;;8.60;94.50;;;;;;5007475;28;20295;-62
2023/11/19 04:48:51;;;;;;;;;;;8.60;94.50;;;;;;5004266;28;19929;-63
2023/11/19 04:51:25;;;;;;;;;;;8.60;94.40;;;;;;5009656;28;20029;-62
2023/11/19 04:53:58;;;;;;;;;;;8.60;94.50;;;;;;5017431;28;19925;-62
2023/11/19 04:56:31;;;;;;;;;;;8.60;94.50;;;;;;5028351;28;19933;-63
2023/11/19 04:59:05;;;;;;;;;;;8.60;94.50;;;;;;5027709;28;19944;-62
2023/11/19 05:01:38;;;;;;;;;;;8.70;94.60;;;;;;5023683;28;19935;-62
2023/11/19 05:04:12;;;;;;;;;;;8.70;94.60;;;;;;5009406;28;19930;-63
2023/11/19 05:06:45;;;;;;;;;;;8.70;94.60;;;;;;5009018;28;20021;-63
2023/11/19 05:09:18;;;;;;;;;;;8.70;94.60;;;;;;5007712;28;19925;-63
2023/11/19 05:11:51;;;;;;;;;;;8.70;94.60;;;;;;5004469;28;19965;-63
2023/11/19 05:14:24;;;;;;;;;;;8.70;94.70;;;;;;5009263;28;19956;-63
2023/11/19 05:17:00;;;;;;;;;;;8.80;94.70;;;;;;5004368;28;20349;-62
2023/11/19 05:19:34;;;;;;;;;;;8.80;94.70;;;;;;5027495;28;19932;-63
2023/11/19 05:22:08;;;;;;;;;;;8.80;94.70;;;;;;5008890;28;20365;-63
2023/11/19 05:24:41;;;;;;;;;;;8.80;94.70;;;;;;5010110;28;20376;-63
2023/11/19 05:27:15;;;;;;;;;;;8.80;94.70;;;;;;5009654;28;20299;-62
2023/11/19 05:29:48;;;;;;;;;;;8.80;94.70;;;;;;5007263;28;20289;-63
2023/11/19 05:32:21;;;;;;;;;;;8.90;94.80;;;;;;5008400;28;19984;-64
2023/11/19 05:34:55;;;;;;;;;;;8.90;94.80;;;;;;5009842;28;19925;-64
2023/11/19 05:37:29;;;;;;;;;;;8.90;94.80;;;;;;5004460;28;19933;-63
2023/11/19 05:40:03;;;;;;;;;;;9.00;94.80;;;;;;5007597;28;19929;-63
2023/11/19 05:42:38;;;;;;;;;;;9.00;94.80;;;;;;5009572;28;20427;-60
2023/11/19 05:45:12;;;;;;;;;;;9.00;94.90;;;;;;5025883;28;19940;-61
2023/11/19 05:47:52;;;;;;;;;;;9.00;94.80;;;;;;5010819;28;20013;-61
2023/11/19 05:50:26;;;;;;;;;;;9.00;94.90;;;;;;5006340;28;20031;-61
2023/11/19 05:52:59;;;;;;;;;;;9.00;94.90;;;;;;5009085;28;19976;-63
2023/11/19 05:55:32;;;;;;;;;;;9.10;94.90;;;;;;5005606;28;19936;-60
2023/11/19 05:58:06;;;;;;;;;;;9.10;95.00;;;;;;5028876;28;19937;-61
2023/11/19 06:00:40;;;;;;;;;;;9.10;95.00;;;;;;5024322;28;20290;-61
2023/11/19 06:03:13;;;;;;;;;;;9.10;95.00;;;;;;5028690;28;19948;-61
2023/11/19 06:05:41;;;;;;;;;;;9.10;95.00;;;;;;5020195;28;19925;-60
2023/11/19 06:08:14;;;;;;;;;;;9.10;95.00;;;;;;5029007;28;19929;-61
2023/11/19 06:10:49;;;;;;;;;;;9.20;95.00;;;;;;5024454;28;19933;-60
2023/11/19 06:13:23;;;;;;;;;;;9.20;95.00;;;;;;5018049;28;19976;-61
2023/11/19 06:15:57;;;;;;;;;;;9.20;95.10;;;;;;5027148;28;19983;-61
2023/11/19 06:18:31;;;;;;;;;;;9.20;95.00;;;;;;5028970;28;20011;-61
2023/11/19 06:21:06;;;;;;;;;;;9.20;95.00;;;;;;5027707;28;19925;-60
2023/11/19 06:23:42;;;;;;;;;;;9.20;95.10;;;;;;5028427;28;20308;-62
2023/11/19 06:26:15;;;;;;;;;;;9.20;95.10;;;;;;5032418;28;19933;-61
2023/11/19 06:28:48;;;;;;;;;;;9.20;95.10;;;;;;5029855;28;19925;-61
2023/11/19 06:31:21;;;;;;;;;;;9.30;95.10;;;;;;5030319;28;19929;-61
2023/11/19 06:33:57;;;;;;;;;;;9.30;95.20;;;;;;5031415;28;19929;-61
2023/11/19 06:36:32;;;;;;;;;;;9.40;95.20;;;;;;5031617;28;20371;-62
2023/11/19 06:39:05;;;;;;;;;;;9.40;95.10;;;;;;5016175;28;19935;-61
2023/11/19 06:41:39;;;;;;;;;;;9.40;95.20;;;;;;5008415;28;19934;-61
2023/11/19 06:44:12;;;;;;;;;;;9.40;95.20;;;;;;5012720;28;20024;-61
2023/11/19 06:46:45;;;;;;;;;;;9.40;95.20;;;;;;5012073;28;19973;-61
2023/11/19 06:49:19;;;;;;;;;;;9.40;95.20;;;;;;5012340;28;19925;-60
2023/11/19 06:51:53;;;;;;;;;;;9.40;95.20;;;;;;5011665;28;20284;-61
2023/11/19 06:54:27;;;;;;;;;;;9.40;95.20;;;;;;5012749;28;20015;-60
2023/11/19 06:57:00;;;;;;;;;;;9.50;95.20;;;;;;5008986;28;19979;-61
2023/11/19 06:59:33;;;;;;;;;;;9.50;95.20;;;;;;5019667;28;20395;-61
2023/11/19 07:02:06;;;;;;;;;;;9.50;95.20;;;;;;5025973;28;19929;-61
2023/11/19 07:04:39;;;;;;;;;;;9.50;95.20;;;;;;5021126;28;19933;-61
2023/11/19 07:07:16;;;;;;;;;;;9.50;95.20;;;;;;5017727;28;19930;-60
2023/11/19 07:09:50;;;;;;;;;;;9.50;95.20;;;;;;5009777;28;19936;-61
2023/11/19 07:12:23;;;;;;;;;;;9.60;95.20;;;;;;5010383;28;20403;-60
2023/11/19 07:14:56;;;;;;;;;;;9.60;95.20;;;;;;5008757;28;19972;-61
2023/11/19 07:17:34;;;;;;;;;;;9.60;95.20;;;;;;5009468;28;20376;-61
2023/11/19 07:20:15;;;;;;;;;;;9.60;95.20;;;;;;5017717;28;19929;-60
2023/11/19 07:22:49;;;;;;;;;;;9.70;95.30;;;;;;5007545;28;19929;-61
2023/11/19 07:25:23;;;;;;;;;;;9.60;95.20;;;;;;5031178;28;19931;-60
2023/11/19 07:27:56;;;;;;;;;;;9.60;95.20;;;;;;5011743;28;19929;-61
2023/11/19 07:30:29;;;;;;;;;;;9.70;95.20;;;;;;5011476;28;19930;-61
2023/11/19 07:32:57;;;;;;;;;;;9.70;95.30;;;;;;5008242;28;19936;-61
2023/11/19 07:35:31;;;;;;;;;;;9.70;95.30;;;;;;5008667;28;20390;-61
2023/11/19 07:38:06;;;;;;;;;;;9.70;95.30;;;;;;5010726;28;19971;-61
2023/11/19 07:40:39;;;;;;;;;;;9.70;95.30;;;;;;5011060;28;20400;-61
2023/11/19 07:43:12;;;;;;;;;;;9.70;95.30;;;;;;5004491;28;19951;-60
2023/11/19 07:45:45;;;;;;;;;;;9.80;95.30;;;;;;5009619;28;19940;-62
2023/11/19 07:48:23;;;;;;;;;;;9.80;95.30;;;;;;5010663;28;20386;-61
2023/11/19 07:51:03;;;;;;;;;;;9.80;95.30;;;;;;5006835;28;19926;-60
2023/11/19 07:53:38;;;;;;;;;;;9.80;95.30;;;;;;5010795;28;19940;-61
2023/11/19 07:56:11;;;;;;;;;;;9.80;95.30;;;;;;5030782;28;19932;-61
2023/11/19 07:58:45;;;;;;;;;;;9.90;95.30;;;;;;5028472;28;19933;-61
2023/11/19 08:01:19;;;;;;;;;;;9.90;95.40;;;;;;5026432;28;19925;-60
2023/11/19 08:03:52;;;;;;;;;;;9.90;95.40;;;;;;5003903;28;19956;-60
2023/11/19 08:06:25;;;;;;;;;;;9.90;95.30;;;;;;5026853;28;19935;-60
2023/11/19 08:08:59;;;;;;;;;;;9.90;95.40;;;;;;5025217;28;19925;-61
2023/11/19 08:11:33;;;;;;;;;;;10.00;95.40;;;;;;5009354;28;19929;-61
2023/11/19 08:14:06;;;;;;;;;;;10.00;95.40;;;;;;5011158;28;19948;-60
2023/11/19 08:16:46;;;;;;;;;;;10.00;95.40;;;;;;5009374;28;20465;-60
2023/11/19 08:19:20;;;;;;;;;;;10.00;95.40;;;;;;5006967;28;19983;-61
2023/11/19 08:21:47;;;;;;;;;;;10.10;95.40;;;;;;5009052;28;20285;-60
2023/11/19 08:24:21;;;;;;;;;;;10.00;95.40;;;;;;5009398;28;19926;-60
2023/11/19 08:26:55;;;;;;;;;;;10.10;95.40;;;;;;5010420;28;19937;-60
2023/11/19 08:29:29;;;;;;;;;;;10.10;95.40;;;;;;5011560;28;20023;-61
2023/11/19 08:32:03;;;;;;;;;;;10.10;95.40;;;;;;5010470;28;19925;-60
2023/11/19 08:34:36;;;;;;;;;;;10.20;95.40;;;;;;5009048;28;19965;-61
2023/11/19 08:37:24;;;;;;;;;;;10.20;95.40;;;;;;4999153;28;25168;-61
2023/11/19 08:40:05;;;;;;;;;;;10.20;95.30;;;;;;5009999;28;20007;-61
2023/11/19 08:42:40;;;;;;;;;;;10.30;95.30;;;;;;5009276;28;20396;-61
2023/11/19 08:45:14;;;;;;;;;;;10.30;95.40;;;;;;5009150;28;19937;-61
2023/11/19 08:47:47;;;;;;;;;;;10.40;95.30;;;;;;5009197;28;20371;-61
2023/11/19 08:50:20;;;;;;;;;;;10.30;95.30;;;;;;5010409;28;19926;-61
2023/11/19 08:52:56;;;;;;;;;;;10.30;95.30;;;;;;5007810;28;19925;-60
2023/11/19 08:55:31;;;;;;;;;;;10.40;95.30;;;;;;5007582;28;19940;-60
2023/11/19 08:58:04;;;;;;;;;;;10.50;95.30;;;;;;5029329;28;19995;-61
2023/11/19 09:00:37;;;;;;;;;;;10.50;95.20;;;;;;5024827;28;20013;-60
2023/11/19 09:03:10;;;;;;;;;;;10.60;95.30;;;;;;5026346;28;19968;-60
2023/11/19 09:05:43;;;;;;;;;;;10.60;95.20;;;;;;5028233;28;19929;-60
2023/11/19 09:08:16;;;;;;;;;;;10.70;95.20;;;;;;5014036;28;19973;-61
2023/11/19 09:10:51;;;;;;;;;;;10.70;95.20;;;;;;5008933;28;20284;-59
2023/11/19 09:13:31;;;;;;;;;;;10.70;95.10;;;;;;5010293;28;19956;-63
2023/11/19 09:16:06;;;;;;;;;;;10.80;95.10;;;;;;5026242;28;19929;-62
2023/11/19 09:18:39;;;;;;;;;;;10.80;95.00;;;;;;5027948;28;20535;-63
2023/11/19 09:21:12;;;;;;;;;;;10.80;95.10;;;;;;5023592;28;20015;-62
2023/11/19 09:23:40;;;;;;;;;;;10.80;95.00;;;;;;5008169;28;19933;-63
2023/11/19 09:26:14;;;;;;;;;;;10.80;95.00;;;;;;5008074;28;19969;-62
2023/11/19 09:28:48;;;;;;;;;;;10.90;95.00;;;;;;5010176;28;20008;-62
2023/11/19 09:31:21;;;;;;;;;;;11.00;94.90;;;;;;5008869;28;19932;-62
2023/11/19 09:33:54;;;;;;;;;;;11.00;94.90;;;;;;5019936;28;19960;-62
2023/11/19 09:36:27;;;;;;;;;;;11.10;94.90;;;;;;5029749;28;19924;-62
2023/11/19 09:39:01;;;;;;;;;;;11.10;94.80;;;;;;5015348;28;19930;-61
2023/11/19 09:41:36;;;;;;;;;;;11.10;94.80;;;;;;5023062;28;20020;-62
2023/11/19 09:44:11;;;;;;;;;;;11.00;94.80;;;;;;5018562;28;19936;-62
2023/11/19 09:46:39;;;;;;;;;;;11.00;94.80;;;;;;5029277;28;19932;-62
2023/11/19 09:49:12;;;;;;;;;;;11.00;94.70;;;;;;5025013;28;20388;-62
2023/11/19 09:51:45;;;;;;;;;;;11.10;94.70;;;;;;5008561;28;19929;-62
2023/11/19 09:54:18;;;;;;;;;;;11.10;94.70;;;;;;5008539;28;19926;-62
2023/11/19 09:56:52;;;;;;;;;;;11.20;94.70;;;;;;5009674;28;20016;-64
2023/11/19 09:59:26;;;;;;;;;;;11.20;94.70;;;;;;5012542;28;19932;-63
2023/11/19 10:02:00;;;;;;;;;;;11.30;94.70;;;;;;5004713;28;19932;-62
2023/11/19 10:04:34;;;;;;;;;;;11.30;94.60;;;;;;5010858;28;19925;-61
2023/11/19 10:07:08;;;;;;;;;;;11.40;94.60;;;;;;5031869;28;20308;-63
2023/11/19 10:09:41;;;;;;;;;;;11.40;94.60;;;;;;5032225;28;19929;-63
2023/11/19 10:12:16;;;;;;;;;;;11.40;94.50;;;;;;5027149;28;19933;-62
2023/11/19 10:14:51;;;;;;;;;;;11.50;94.60;;;;;;5032727;28;19936;-63
2023/11/19 10:17:29;;;;;;;;;;;11.50;94.50;;;;;;5027669;28;19925;-63
2023/11/19 10:20:04;;;;;;;;;;;11.50;94.50;;;;;;5032240;28;19932;-62
2023/11/19 10:22:37;;;;;;;;;;;11.60;94.50;;;;;;5032175;28;19933;-74
2023/11/19 10:25:22;;;;;;;;;;;11.60;94.40;;;;;;5032803;28;19953;-73
2023/11/19 10:27:57;;;;;;;;;;;11.60;94.30;;;;;;5030190;28;19971;-73
2023/11/19 10:30:33;;;;;;;;;;;11.70;94.20;;;;;;5020293;28;20684;-74
2023/11/19 10:33:07;;;;;;;;;;;11.70;94.20;;;;;;5020879;28;19996;-76
2023/11/19 10:35:52;;;;;;;;;;;11.70;94.10;;;;;;5013180;28;20380;-75
2023/11/19 10:38:26;;;;;;;;;;;11.70;94.10;;;;;;5014532;28;20021;-75
2023/11/19 10:40:59;;;;;;;;;;;11.70;94.00;;;;;;5029373;28;19932;-75
2023/11/19 10:43:45;;;;;;;;;;;11.80;93.80;;;;;;5033931;28;19933;-74
2023/11/19 10:46:22;;;;;;;;;;;11.80;93.70;;;;;;5028755;28;19929;-74
2023/11/19 10:48:56;;;;;;;;;;;11.90;93.20;;;;;;5019543;28;19960;-73
2023/11/19 10:51:30;;;;;;;;;;;11.90;93.30;;;;;;5015734;28;19965;-75
2023/11/19 10:54:05;;;;;;;;;;;11.90;93.10;;;;;;5036468;28;20014;-74
2023/11/19 10:56:38;;;;;;;;;;;11.90;93.00;;;;;;5036589;28;19940;-73
2023/11/19 10:59:15;;;;;;;;;;;11.90;92.90;;;;;;5023520;28;20004;-73
2023/11/19 11:01:49;;;;;;;;;;;11.90;92.80;;;;;;5031005;28;20303;-73
2023/11/19 11:04:24;;;;;;;;;;;11.90;92.60;;;;;;5032879;28;19936;-72
2023/11/19 11:06:59;;;;;;;;;;;11.90;92.60;;;;;;5029322;28;19925;-75
2023/11/19 11:09:32;;;;;;;;;;;11.90;92.50;;;;;;5031904;28;20024;-73
2023/11/19 11:12:07;;;;;;;;;;;11.90;92.50;;;;;;5030025;28;19939;-73
2023/11/19 11:14:49;;;;;;;;;;;11.90;92.40;;;;;;5023146;28;20299;-73
2023/11/19 11:17:25;;;;;;;;;;;11.90;92.50;;;;;;5032243;28;20458;-73
2023/11/19 11:19:58;;;;;;;;;;;11.90;92.10;;;;;;5028902;28;22680;-73
2023/11/19 11:22:35;;;;;;;;;;;11.90;92.20;;;;;;5028692;28;19925;-74
2023/11/19 11:25:25;;;;;;;;;;;11.90;91.80;;;;;;5031630;28;19987;-74
2023/11/19 11:28:07;;;;;;;;;;;11.90;91.70;;;;;;5023210;28;20410;-72
2023/11/19 11:30:47;;;;;;;;;;;11.90;91.40;;;;;;5024974;28;19925;-73
2023/11/19 11:33:32;;;;;;;;;;;11.90;91.30;;;;;;5011084;28;19929;-63
2023/11/19 11:36:13;;;;;;;;;;;11.90;91.10;;;;;;5020817;28;19932;-64
2023/11/19 11:38:49;;;;;;;;;;;11.90;91.00;;;;;;5030093;28;20281;-63
2023/11/19 11:41:16;;;;;;;;;;;11.90;91.00;;;;;;5028966;28;20364;-64
2023/11/19 11:43:50;;;;;;;;;;;11.90;90.90;;;;;;5030952;28;20012;-64
2023/11/19 11:46:42;;;;;;;;;;;11.90;91.00;;;;;;5030061;28;19936;-65
2023/11/19 11:49:25;;;;;;;;;;;11.90;91.00;;;;;;5028225;28;20348;-64
2023/11/19 11:51:59;;;;;;;;;;;11.90;90.90;;;;;;5030162;28;19933;-64
2023/11/19 11:54:32;;;;;;;;;;;11.90;90.60;;;;;;5030064;28;19929;-64
2023/11/19 11:57:08;;;;;;;;;;;11.80;90.50;;;;;;5028753;28;19933;-64
2023/11/19 11:59:46;;;;;;;;;;;11.90;90.50;;;;;;5030552;28;20028;-64
2023/11/19 12:02:23;;;;;;;;;;;11.90;90.30;;;;;;5026883;28;20455;-64
2023/11/19 12:05:03;;;;;;;;;;;11.90;90.00;;;;;;5029287;28;19952;-64
2023/11/19 12:07:38;;;;;;;;;;;11.90;90.10;;;;;;5011174;28;19929;-65
2023/11/19 12:10:12;;;;;;;;;;;12.00;89.90;;;;;;5009659;28;19965;-64
2023/11/19 12:12:46;;;;;;;;;;;12.00;90.00;;;;;;5007413;28;19933;-64
2023/11/19 12:15:20;;;;;;;;;;;12.00;89.80;;;;;;5010016;28;19937;-64
2023/11/19 12:17:53;;;;;;;;;;;11.90;89.80;;;;;;5009419;28;20353;-64
2023/11/19 12:20:31;;;;;;;;;;;11.90;89.60;;;;;;5009926;28;20016;-64
2023/11/19 12:23:07;;;;;;;;;;;11.90;89.20;;;;;;5020852;28;19925;-63
2023/11/19 12:25:40;;;;;;;;;;;11.90;89.10;;;;;;5029278;28;19971;-64
2023/11/19 12:28:13;;;;;;;;;;;11.90;89.00;;;;;;5030011;28;19933;-63
2023/11/19 12:30:48;;;;;;;;;;;11.90;88.80;;;;;;5026947;28;20357;-65
2023/11/19 12:33:21;;;;;;;;;;;12.00;88.60;;;;;;5029019;28;19925;-65
2023/11/19 12:35:56;;;;;;;;;;;12.00;88.70;;;;;;5029656;28;20304;-65
2023/11/19 12:38:29;;;;;;;;;;;11.90;88.30;;;;;;5029947;28;19969;-65
2023/11/19 12:41:06;;;;;;;;;;;12.00;88.20;;;;;;5029632;28;20012;-65
2023/11/19 12:43:40;;;;;;;;;;;11.90;87.70;;;;;;5028403;28;20276;-62
2023/11/19 12:46:20;;;;;;;;;;;11.90;87.40;;;;;;5028005;28;19936;-61
2023/11/19 12:48:53;;;;;;;;;;;11.90;86.50;;;;;;5030356;28;19936;-61
2023/11/19 12:51:33;;;;;;;;;;;11.90;87.40;;;;;;5008888;28;20063;-62
2023/11/19 12:54:06;;;;;;;;;;;11.80;86.80;;;;;;5028176;28;19929;-60
2023/11/19 12:56:52;;;;;;;;;;;11.80;86.70;;;;;;5029783;28;19936;-61
2023/11/19 12:59:27;;;;;;;;;;;11.80;86.50;;;;;;5027692;28;19929;-61
2023/11/19 13:02:02;;;;;;;;;;;11.80;86.20;;;;;;5023789;28;19936;-61
2023/11/19 13:04:35;;;;;;;;;;;11.80;85.90;;;;;;5022415;28;19932;-61
2023/11/19 13:07:10;;;;;;;;;;;11.80;86.00;;;;;;5006889;28;19930;-61
2023/11/19 13:09:46;;;;;;;;;;;11.70;85.80;;;;;;5026067;28;19932;-62
2023/11/19 13:12:19;;;;;;;;;;;11.70;85.90;;;;;;5027852;28;19995;-61
2023/11/19 13:14:53;;;;;;;;;;;11.70;86.40;;;;;;5028785;28;19929;-61
2023/11/19 13:17:27;;;;;;;;;;;11.70;85.60;;;;;;5015326;28;19930;-61
2023/11/19 13:20:00;;;;;;;;;;;11.80;85.00;;;;;;5007504;28;19956;-61
2023/11/19 13:22:35;;;;;;;;;;;11.80;84.80;;;;;;5008769;28;20032;-62
2023/11/19 13:25:09;;;;;;;;;;;11.80;84.90;;;;;;5005447;28;19933;-61
2023/11/19 13:27:42;;;;;;;;;;;11.80;84.10;;;;;;5008705;28;19929;-61
2023/11/19 13:30:16;;;;;;;;;;;11.90;83.80;;;;;;5008150;28;19929;-60
2023/11/19 13:32:49;;;;;;;;;;;11.90;83.70;;;;;;5012655;28;20032;-61
2023/11/19 13:35:23;;;;;;;;;;;11.90;83.30;;;;;;5016338;28;19961;-61
2023/11/19 13:37:57;;;;;;;;;;;11.90;83.20;;;;;;5014723;28;19926;-60
2023/11/19 13:40:31;;;;;;;;;;;11.90;83.10;;;;;;5016534;28;20352;-60
2023/11/19 13:43:04;;;;;;;;;;;11.90;83.10;;;;;;5032423;28;20398;-61
2023/11/19 13:45:37;;;;;;;;;;;11.80;82.90;;;;;;5027684;28;20008;-61
2023/11/19 13:48:10;;;;;;;;;;;11.80;82.70;;;;;;5036231;28;20011;-61
2023/11/19 13:50:43;;;;;;;;;;;11.70;82.60;;;;;;5034530;28;19929;-61
2023/11/19 13:53:18;;;;;;;;;;;11.70;82.50;;;;;;5030855;28;20707;-63
2023/11/19 13:55:51;;;;;;;;;;;11.70;82.90;;;;;;5024823;28;19984;-63
2023/11/19 13:58:24;;;;;;;;;;;11.60;83.10;;;;;;5029720;28;19976;-63
2023/11/19 14:00:57;;;;;;;;;;;11.50;83.00;;;;;;5034034;28;19929;-62
2023/11/19 14:03:30;;;;;;;;;;;11.60;83.20;;;;;;5032171;28;19936;-63
2023/11/19 14:06:04;;;;;;;;;;;11.50;83.40;;;;;;5034876;28;19933;-63
2023/11/19 14:08:38;;;;;;;;;;;11.50;83.20;;;;;;5017267;28;19925;-62
2023/11/19 14:11:12;;;;;;;;;;;11.50;83.60;;;;;;5015631;28;19934;-63
2023/11/19 14:13:46;;;;;;;;;;;11.50;83.70;;;;;;5024526;28;19929;-64
2023/11/19 14:16:19;;;;;;;;;;;11.40;83.70;;;;;;5033875;28;19932;-64
2023/11/19 14:18:54;;;;;;;;;;;11.50;84.10;;;;;;5033819;28;19933;-62
2023/11/19 14:21:27;;;;;;;;;;;11.40;84.30;;;;;;5033925;28;19936;-64
2023/11/19 14:24:02;;;;;;;;;;;11.50;84.30;;;;;;5032668;28;19929;-62
2023/11/19 14:26:35;;;;;;;;;;;11.50;84.40;;;;;;5023055;28;19941;-63
2023/11/19 14:29:08;;;;;;;;;;;11.50;84.30;;;;;;5033451;28;19956;-63
2023/11/19 14:31:41;;;;;;;;;;;11.60;84.00;;;;;;5034866;28;19948;-62
2023/11/19 14:34:14;;;;;;;;;;;11.60;84.10;;;;;;5035033;28;19925;-62
2023/11/19 14:36:48;;;;;;;;;;;11.60;84.00;;;;;;5035413;28;20482;-63
2023/11/19 14:39:24;;;;;;;;;;;11.60;83.90;;;;;;5034295;28;20024;-61
2023/11/19 14:42:00;;;;;;;;;;;11.60;84.10;;;;;;5032094;28;19929;-63
2023/11/19 14:44:33;;;;;;;;;;;11.60;83.90;;;;;;5031349;28;19948;-62
2023/11/19 14:47:06;;;;;;;;;;;11.70;84.00;;;;;;5032164;28;20495;-62
2023/11/19 14:49:39;;;;;;;;;;;11.60;84.20;;;;;;5014273;28;19940;-62
2023/11/19 14:52:13;;;;;;;;;;;11.60;84.30;;;;;;5012282;28;20007;-62
2023/11/19 14:54:56;;;;;;;;;;;11.60;84.10;;;;;;5010546;28;19957;-63
2023/11/19 14:57:29;;;;;;;;;;;11.60;84.10;;;;;;5012492;28;19940;-62
2023/11/19 15:00:12;;;;;;;;;;;11.60;83.70;;;;;;5011999;28;19925;-62
2023/11/19 15:02:45;;;;;;;;;;;11.60;83.60;;;;;;5013492;28;20313;-62
2023/11/19 15:05:19;;;;;;;;;;;11.60;83.40;;;;;;5011435;28;19929;-63